Time;durP1;ratioP1;P1;durP2;ratioP2;P2;SDS_P1;SDS_P2;PMS_P1;PMS_P2;Temp;Humidity;BMP_temperature;BMP_pressure;BME280_temperature;BME280_humidity;BME280_pressure;Samples;Min_cycle;Max_cycle;Signal;HPM_P1;HPM_P2
2023/10/04 00:01:43;;;;;;;26.92;17.73;;;22.80;76.80;;;;;;6244601;23;20014;-78
2023/10/04 00:04:10;;;;;;;20.95;16.73;;;22.80;77.00;;;;;;6245314;22;20032;-78
2023/10/04 00:06:36;;;;;;;23.38;16.90;;;22.70;77.00;;;;;;6244426;23;20457;-77
2023/10/04 00:09:05;;;;;;;19.48;16.40;;;22.70;76.90;;;;;;6228178;23;20020;-76
2023/10/04 00:11:33;;;;;;;24.17;18.58;;;22.70;76.90;;;;;;6214032;23;20013;-77
2023/10/04 00:13:59;;;;;;;21.27;18.30;;;22.70;77.40;;;;;;6213760;23;20009;-78
2023/10/04 00:16:26;;;;;;;21.48;18.60;;;22.70;77.10;;;;;;6214059;23;20008;-77
2023/10/04 00:18:54;;;;;;;26.08;18.40;;;22.70;77.00;;;;;;6214930;23;20001;-77
2023/10/04 00:21:20;;;;;;;20.65;18.25;;;22.60;77.00;;;;;;6213982;23;20040;-76
2023/10/04 00:23:45;;;;;;;24.65;17.65;;;22.60;76.90;;;;;;6187202;23;20001;-76
2023/10/04 00:26:11;;;;;;;23.58;17.45;;;22.60;77.10;;;;;;6213607;23;20418;-76
2023/10/04 00:28:40;;;;;;;26.60;17.48;;;22.60;77.20;;;;;;6214179;23;20012;-77
2023/10/04 00:31:06;;;;;;;23.02;17.95;;;22.50;77.60;;;;;;6213629;23;20386;-77
2023/10/04 00:33:32;;;;;;;25.05;16.83;;;22.50;77.00;;;;;;6213915;23;20059;-76
2023/10/04 00:36:03;;;;;;;24.95;18.27;;;22.50;77.20;;;;;;6213468;23;20053;-77
2023/10/04 00:38:30;;;;;;;27.35;17.90;;;22.40;76.90;;;;;;6213757;23;20080;-77
2023/10/04 00:40:56;;;;;;;23.02;17.33;;;22.40;76.90;;;;;;6213788;23;20039;-76
2023/10/04 00:43:22;;;;;;;21.08;16.88;;;22.40;77.00;;;;;;6213825;23;19996;-76
2023/10/04 00:45:49;;;;;;;21.60;17.17;;;22.30;76.80;;;;;;6213794;23;20377;-76
2023/10/04 00:48:24;;;;;;;26.83;17.05;;;22.30;77.00;;;;;;6214639;23;20276;-77
2023/10/04 00:50:50;;;;;;;22.85;17.00;;;22.20;76.80;;;;;;6216004;23;20057;-77
2023/10/04 00:53:23;;;;;;;24.52;15.95;;;22.20;76.80;;;;;;6188893;23;20338;-76
2023/10/04 00:55:53;;;;;;;22.08;16.15;;;22.20;76.60;;;;;;6215428;23;20008;-78
2023/10/04 00:58:19;;;;;;;20.73;15.27;;;22.10;76.50;;;;;;6215606;23;20001;-78
2023/10/04 01:00:47;;;;;;;26.02;16.83;;;22.10;76.50;;;;;;6215682;23;20446;-77
2023/10/04 01:03:15;;;;;;;24.33;16.05;;;22.20;76.30;;;;;;6216056;23;20466;-77
2023/10/04 01:05:49;;;;;;;22.15;15.50;;;22.10;76.20;;;;;;6216351;23;20031;-76
2023/10/04 01:08:16;;;;;;;22.70;15.43;;;22.10;75.90;;;;;;6216010;23;20083;-78
2023/10/04 01:10:44;;;;;;;21.85;15.20;;;22.00;75.70;;;;;;6215885;23;20496;-76
2023/10/04 01:13:11;;;;;;;22.10;15.18;;;22.00;75.80;;;;;;6215477;23;20015;-76
2023/10/04 01:15:39;;;;;;;22.35;14.88;;;22.00;75.50;;;;;;6215823;23;20008;-78
2023/10/04 01:18:06;;;;;;;18.58;13.57;;;22.10;75.40;;;;;;6216066;23;20019;-77
2023/10/04 01:20:33;;;;;;;20.95;14.10;;;22.20;75.10;;;;;;6215937;23;20012;-77
2023/10/04 01:23:06;;;;;;;20.85;14.50;;;22.20;74.40;;;;;;6215270;23;20087;-77
2023/10/04 01:25:41;;;;;;;19.08;14.55;;;22.10;74.00;;;;;;6215709;23;20005;-77
2023/10/04 01:28:17;;;;;;;21.40;14.50;;;22.10;74.10;;;;;;6215778;23;20020;-77
2023/10/04 01:30:48;;;;;;;23.50;14.32;;;22.10;73.30;;;;;;6188698;23;20075;-75
2023/10/04 01:33:23;;;;;;;19.55;14.05;;;22.00;72.80;;;;;;6215488;23;20013;-77
2023/10/04 01:35:53;;;;;;;21.20;14.30;;;22.00;72.90;;;;;;6219035;23;20067;-77
2023/10/04 01:38:25;;;;;;;21.90;13.70;;;21.90;72.20;;;;;;6220107;23;20028;-76
2023/10/04 01:40:55;;;;;;;23.20;14.10;;;21.80;72.70;;;;;;6219223;23;20326;-76
2023/10/04 01:43:24;;;;;;;21.05;13.98;;;21.90;71.90;;;;;;6215693;23;20055;-77
2023/10/04 01:45:59;;;;;;;20.00;14.27;;;21.80;71.70;;;;;;6215660;23;20029;-77
2023/10/04 01:48:27;;;;;;;20.95;14.95;;;21.80;71.70;;;;;;6215660;23;20028;-77
2023/10/04 01:50:53;;;;;;;21.30;13.32;;;21.70;71.80;;;;;;6216119;23;20043;-77
2023/10/04 01:53:21;;;;;;;22.20;14.00;;;21.70;72.00;;;;;;6215595;23;20115;-77
2023/10/04 01:55:46;;;;;;;19.02;13.15;;;21.60;71.50;;;;;;6215236;23;20005;-77
2023/10/04 01:58:14;;;;;;;20.73;13.73;;;21.60;71.70;;;;;;6215500;23;20004;-78
2023/10/04 02:00:40;;;;;;;20.60;13.10;;;21.50;71.50;;;;;;6215998;23;20004;-77
2023/10/04 02:03:07;;;;;;;21.17;13.82;;;21.50;71.60;;;;;;6215239;23;20008;-76
2023/10/04 02:05:37;;;;;;;21.50;13.15;;;21.50;71.70;;;;;;6215647;23;20046;-76
2023/10/04 02:08:07;;;;;;;19.42;12.57;;;21.50;71.50;;;;;;6215156;23;20013;-77
2023/10/04 02:10:33;;;;;;;18.80;12.98;;;21.50;71.60;;;;;;6215369;23;20004;-77
2023/10/04 02:12:59;;;;;;;20.80;13.00;;;21.50;71.20;;;;;;6215246;23;20017;-77
2023/10/04 02:15:25;;;;;;;18.05;12.23;;;21.40;71.30;;;;;;6215753;23;20068;-77
2023/10/04 02:17:51;;;;;;;16.48;11.48;;;21.40;71.20;;;;;;6215142;23;20001;-76
2023/10/04 02:20:28;;;;;;;18.20;12.27;;;21.30;71.00;;;;;;6215147;23;20011;-76
2023/10/04 02:22:57;;;;;;;20.73;12.43;;;21.30;70.80;;;;;;6215312;23;20033;-77
2023/10/04 02:25:24;;;;;;;17.83;12.50;;;21.20;70.80;;;;;;6215141;23;20007;-76
2023/10/04 02:27:52;;;;;;;16.38;11.38;;;21.20;70.60;;;;;;6215017;23;20422;-76
2023/10/04 02:30:27;;;;;;;17.38;11.40;;;21.20;70.50;;;;;;6215212;23;20005;-76
2023/10/04 02:32:53;;;;;;;18.48;11.45;;;21.20;70.20;;;;;;6214670;23;20016;-77
2023/10/04 02:35:27;;;;;;;16.83;11.27;;;21.10;70.10;;;;;;6214972;23;20423;-77
2023/10/04 02:38:00;;;;;;;19.17;11.85;;;21.10;70.20;;;;;;6215257;23;20015;-77
2023/10/04 02:40:27;;;;;;;17.45;11.05;;;21.00;70.00;;;;;;6215784;23;20005;-76
2023/10/04 02:42:58;;;;;;;16.92;11.43;;;21.00;70.00;;;;;;6216088;23;20448;-76
2023/10/04 02:45:26;;;;;;;18.17;11.65;;;21.00;69.70;;;;;;6215452;23;20055;-76
2023/10/04 02:47:52;;;;;;;19.02;11.60;;;21.00;69.60;;;;;;6215018;23;20525;-76
2023/10/04 02:50:19;;;;;;;15.05;10.32;;;21.00;69.80;;;;;;6214926;23;19996;-78
2023/10/04 02:52:50;;;;;;;16.73;11.05;;;21.00;69.30;;;;;;6215414;23;20043;-76
2023/10/04 02:55:19;;;;;;;15.95;10.80;;;21.00;69.00;;;;;;6214622;23;20008;-77
2023/10/04 02:57:49;;;;;;;18.48;11.18;;;20.90;68.70;;;;;;6215270;23;20031;-77
2023/10/04 03:00:19;;;;;;;16.83;11.50;;;20.90;69.10;;;;;;6214824;23;20001;-76
2023/10/04 03:02:50;;;;;;;17.20;11.05;;;20.80;69.10;;;;;;6214911;23;20009;-78
2023/10/04 03:05:20;;;;;;;20.55;11.35;;;20.80;68.80;;;;;;6215207;23;20278;-77
2023/10/04 03:07:50;;;;;;;17.52;10.65;;;20.80;68.90;;;;;;6215037;23;20011;-72
2023/10/04 03:10:24;;;;;;;19.02;12.18;;;20.80;68.70;;;;;;6214810;23;20134;-77
2023/10/04 03:12:56;;;;;;;18.33;11.13;;;20.80;69.00;;;;;;6214543;23;20092;-76
2023/10/04 03:15:23;;;;;;;18.13;11.23;;;20.80;69.10;;;;;;6214971;23;20331;-77
2023/10/04 03:17:53;;;;;;;19.17;11.60;;;20.70;69.00;;;;;;6214714;23;20001;-77
2023/10/04 03:20:20;;;;;;;18.00;11.48;;;20.70;69.10;;;;;;6189042;23;20009;-76
2023/10/04 03:22:55;;;;;;;18.63;10.98;;;20.60;69.10;;;;;;6214940;23;20003;-78
2023/10/04 03:25:24;;;;;;;17.35;11.27;;;20.60;69.40;;;;;;6221495;23;20005;-77
2023/10/04 03:27:50;;;;;;;17.35;10.98;;;20.60;69.30;;;;;;6191794;23;20454;-76
2023/10/04 03:30:16;;;;;;;16.33;11.13;;;20.60;69.30;;;;;;6214278;23;20479;-76
2023/10/04 03:32:52;;;;;;;16.58;10.93;;;20.50;69.30;;;;;;6214298;23;20039;-77
2023/10/04 03:35:22;;;;;;;16.75;11.00;;;20.50;69.60;;;;;;6214915;23;20480;-76
2023/10/04 03:37:58;;;;;;;17.90;10.90;;;20.50;69.70;;;;;;6214538;23;20454;-76
2023/10/04 03:40:34;;;;;;;19.63;11.82;;;20.50;69.70;;;;;;6214489;23;20391;-77
2023/10/04 03:43:02;;;;;;;16.83;10.80;;;20.40;69.60;;;;;;6214284;23;20001;-77
2023/10/04 03:45:28;;;;;;;18.05;10.70;;;20.40;69.30;;;;;;6214580;23;20005;-77
2023/10/04 03:47:54;;;;;;;18.38;10.50;;;20.40;68.90;;;;;;6214456;23;19996;-77
2023/10/04 03:50:20;;;;;;;18.20;10.48;;;20.40;68.60;;;;;;6214751;23;20087;-78
2023/10/04 03:52:47;;;;;;;17.08;10.23;;;20.40;68.40;;;;;;6162893;23;20021;-77
2023/10/04 03:55:14;;;;;;;16.70;10.30;;;20.40;68.50;;;;;;6217009;23;20032;-77
2023/10/04 03:57:42;;;;;;;15.60;9.63;;;20.40;68.30;;;;;;6216243;23;20115;-77
2023/10/04 04:00:15;;;;;;;23.20;10.95;;;20.50;68.00;;;;;;6216899;23;20036;-77
2023/10/04 04:02:41;;;;;;;15.20;10.20;;;20.50;67.70;;;;;;6214954;23;20472;-78
2023/10/04 04:05:25;;;;;;;14.82;10.25;;;20.50;67.60;;;;;;6214459;23;20075;-77
2023/10/04 04:07:51;;;;;;;;;;;20.50;67.70;;;;;;6215096;23;20375;-78
2023/10/04 04:10:19;;;;;;;17.83;9.60;;;20.50;67.70;;;;;;6214439;23;19904;-78
2023/10/04 04:12:46;;;;;;;15.10;9.55;;;20.50;67.80;;;;;;6214319;23;20008;-78
2023/10/04 04:15:14;;;;;;;15.38;9.88;;;20.60;67.50;;;;;;6214746;23;20001;-77
2023/10/04 04:17:41;;;;;;;15.25;9.68;;;20.60;66.80;;;;;;6214581;23;20083;-76
2023/10/04 04:20:14;;;;;;;19.48;10.35;;;20.60;66.90;;;;;;6214054;23;20486;-76
2023/10/04 04:22:46;;;;;;;15.95;8.90;;;20.50;66.70;;;;;;6213714;23;20012;-77
2023/10/04 04:25:15;;;;;;;17.48;9.38;;;20.50;66.90;;;;;;6213706;23;20004;-79
2023/10/04 04:27:44;;;;;;;17.08;10.23;;;20.50;66.90;;;;;;6213584;23;20008;-78
2023/10/04 04:30:19;;;;;;;15.60;9.80;;;20.50;66.70;;;;;;6214063;23;20099;-77
2023/10/04 04:32:47;;;;;;;17.05;9.68;;;20.40;66.60;;;;;;6213879;23;20083;-79
2023/10/04 04:35:23;;;;;;;15.63;9.30;;;20.40;66.50;;;;;;6214479;23;20001;-78
2023/10/04 04:37:54;;;;;;;16.48;9.32;;;20.40;66.70;;;;;;6187625;23;20316;-78
2023/10/04 04:40:25;;;;;;;15.93;9.13;;;20.30;66.20;;;;;;6213881;23;20028;-78
2023/10/04 04:42:51;;;;;;;14.95;9.02;;;20.30;66.00;;;;;;6214485;23;20020;-77
2023/10/04 04:45:17;;;;;;;16.13;9.65;;;20.30;65.80;;;;;;6214834;23;20004;-76
2023/10/04 04:47:44;;;;;;;19.08;9.85;;;20.30;66.20;;;;;;6215081;23;20335;-79
2023/10/04 04:50:11;;;;;;;18.25;11.18;;;20.30;66.10;;;;;;6214572;23;20020;-77
2023/10/04 04:52:37;;;;;;;20.90;11.82;;;20.30;66.40;;;;;;6214360;23;20067;-77
2023/10/04 04:55:04;;;;;;;23.70;13.60;;;20.20;66.90;;;;;;6214803;23;20005;-78
2023/10/04 04:57:34;;;;;;;22.05;13.73;;;20.20;67.50;;;;;;6214604;23;20356;-76
2023/10/04 05:00:07;;;;;;;20.27;13.32;;;20.10;68.30;;;;;;6214328;23;20131;-78
2023/10/04 05:02:32;;;;;;;24.43;15.37;;;20.10;68.50;;;;;;6215073;23;20011;-78
2023/10/04 05:04:58;;;;;;;26.80;16.80;;;20.10;68.80;;;;;;6215908;23;20614;-78
2023/10/04 05:07:27;;;;;;;29.15;20.50;;;20.00;69.70;;;;;;6215098;23;20009;-77
2023/10/04 05:09:54;;;;;;;33.65;23.35;;;20.00;71.00;;;;;;6214420;23;20020;-78
2023/10/04 05:12:19;;;;;;;36.97;24.63;;;20.00;72.40;;;;;;6214509;23;20129;-78
2023/10/04 05:14:45;;;;;;;42.10;26.40;;;20.00;73.10;;;;;;6188075;23;20454;-77
2023/10/04 05:17:11;;;;;;;46.05;27.77;;;20.00;73.60;;;;;;6214809;23;20008;-78
2023/10/04 05:19:37;;;;;;;45.90;28.35;;;19.90;74.70;;;;;;6214473;23;20005;-79
2023/10/04 05:22:05;;;;;;;52.35;28.13;;;19.90;75.50;;;;;;6214597;23;20013;-79
2023/10/04 05:24:31;;;;;;;60.83;29.60;;;19.90;76.70;;;;;;6186943;23;20008;-78
2023/10/04 05:26:57;;;;;;;53.35;28.08;;;19.90;76.60;;;;;;6214337;23;20047;-79
2023/10/04 05:29:22;;;;;;;47.05;26.80;;;19.80;77.60;;;;;;6213794;23;20067;-78
2023/10/04 05:31:48;;;;;;;52.50;26.23;;;19.80;78.00;;;;;;6213893;23;20009;-79
2023/10/04 05:34:14;;;;;;;60.72;29.77;;;19.80;79.50;;;;;;6214426;23;20008;-79
2023/10/04 05:36:40;;;;;;;55.53;29.02;;;19.80;79.70;;;;;;6216054;23;20012;-78
2023/10/04 05:39:08;;;;;;;48.78;25.52;;;19.70;80.00;;;;;;6215833;23;20047;-80
2023/10/04 05:41:35;;;;;;;52.53;25.73;;;19.70;80.90;;;;;;6215967;23;20013;-80
2023/10/04 05:44:01;;;;;;;49.17;26.17;;;19.60;81.40;;;;;;6215971;23;20001;-77
2023/10/04 05:46:27;;;;;;;46.00;23.70;;;19.70;81.80;;;;;;6216171;23;20076;-73
2023/10/04 05:48:54;;;;;;;53.50;26.92;;;19.70;81.70;;;;;;6215546;23;20056;-76
2023/10/04 05:51:24;;;;;;;52.55;25.95;;;19.80;81.70;;;;;;6215648;23;20020;-78
2023/10/04 05:53:51;;;;;;;49.50;25.40;;;19.80;82.00;;;;;;6215770;23;20437;-76
2023/10/04 05:56:19;;;;;;;48.33;25.48;;;19.80;82.30;;;;;;6216332;23;20008;-77
2023/10/04 05:58:46;;;;;;;51.88;27.10;;;19.80;82.70;;;;;;6216382;23;20019;-78
2023/10/04 06:01:19;;;;;;;53.83;28.02;;;19.80;83.00;;;;;;6216181;23;20075;-76
2023/10/04 06:03:44;;;;;;;52.17;27.08;;;19.80;83.60;;;;;;6215513;23;20013;-78
2023/10/04 06:06:10;;;;;;;56.05;27.20;;;19.90;83.40;;;;;;6216310;23;20058;-79
2023/10/04 09:04:42;;;;;;;20.08;11.98;;;23.90;62.60;;;;;;6233903;22;20027;-74
2023/10/04 09:07:11;;;;;;;18.08;11.63;;;23.90;62.90;;;;;;6242117;23;20008;-83
2023/10/04 09:09:40;;;;;;;24.10;11.27;;;23.90;62.60;;;;;;6244490;23;20000;-77
2023/10/04 09:12:07;;;;;;;21.40;11.77;;;24.00;62.20;;;;;;6245599;23;20361;-75
2023/10/04 09:14:34;;;;;;;15.80;9.50;;;24.10;62.40;;;;;;6245985;23;20035;-79
2023/10/04 09:17:19;;;;;;;17.70;9.60;;;24.20;62.40;;;;;;6245719;23;20008;-79
2023/10/04 09:19:45;;;;;;;20.55;10.65;;;24.30;62.10;;;;;;6245570;23;20012;-74
2023/10/04 09:22:11;;;;;;;17.52;9.18;;;24.30;61.60;;;;;;6245808;23;20004;-76
2023/10/04 09:24:57;;;;;;;27.80;11.02;;;24.40;61.70;;;;;;6245697;23;20006;-69
2023/10/04 09:27:23;;;;;;;25.50;10.65;;;24.50;61.50;;;;;;6244868;23;20014;-76
2023/10/04 09:29:49;;;;;;;19.27;8.55;;;24.50;61.40;;;;;;6245624;23;20448;-77
2023/10/04 09:32:38;;;;;;;19.08;8.75;;;24.60;61.00;;;;;;6246047;23;20012;-77
2023/10/04 09:35:05;;;;;;;45.58;11.55;;;24.70;60.00;;;;;;6245870;23;20460;-77
2023/10/04 09:37:31;;;;;;;49.50;11.80;;;24.80;59.70;;;;;;6245760;23;20004;-76
2023/10/04 09:40:08;;;;;;;36.53;11.52;;;24.80;59.50;;;;;;6219551;23;20333;-77
2023/10/04 09:42:51;;;;;;;43.90;11.13;;;24.90;60.00;;;;;;6245914;23;20028;-80
2023/10/04 09:45:21;;;;;;;28.30;9.35;;;25.00;59.50;;;;;;6245997;23;20004;-83
2023/10/04 09:47:50;;;;;;;23.70;8.05;;;25.10;58.80;;;;;;6245748;23;20051;-81
2023/10/04 09:50:25;;;;;;;13.40;7.40;;;25.20;58.10;;;;;;6243159;23;20000;-75
2023/10/04 09:52:52;;;;;;;16.95;7.50;;;25.20;57.80;;;;;;6245964;23;20047;-75
2023/10/04 09:55:20;;;;;;;20.48;7.70;;;25.30;57.50;;;;;;6245916;23;20329;-75
2023/10/04 09:57:48;;;;;;;15.30;7.00;;;25.40;57.30;;;;;;6245126;23;20000;-76
2023/10/04 10:00:17;;;;;;;112.22;17.30;;;25.50;56.90;;;;;;6245405;23;19996;-75
2023/10/04 10:02:54;;;;;;;27.30;8.35;;;25.60;56.50;;;;;;6245608;23;20071;-79
2023/10/04 10:05:31;;;;;;;17.67;7.47;;;25.70;55.00;;;;;;6245274;23;20016;-78
2023/10/04 10:08:04;;;;;;;20.38;7.18;;;25.70;55.10;;;;;;6245212;23;20075;-78
2023/10/04 10:10:41;;;;;;;18.52;6.10;;;25.80;55.00;;;;;;6245452;23;20075;-74
2023/10/04 10:13:08;;;;;;;11.60;5.80;;;25.90;53.50;;;;;;6245276;23;20012;-77
2023/10/04 10:15:35;;;;;;;11.73;5.28;;;26.00;53.60;;;;;;6244737;23;20099;-78
2023/10/04 10:18:01;;;;;;;10.90;5.22;;;26.10;53.60;;;;;;6245176;23;20008;-75
2023/10/04 10:20:28;;;;;;;12.40;5.57;;;26.10;52.80;;;;;;6245034;23;20000;-75
2023/10/04 10:22:59;;;;;;;10.38;5.85;;;26.10;53.20;;;;;;6245387;23;19997;-76
2023/10/04 10:25:26;;;;;;;8.02;4.97;;;26.20;53.50;;;;;;6245085;23;20008;-78
2023/10/04 10:28:04;;;;;;;9.52;5.38;;;26.30;53.50;;;;;;6245100;23;20010;-80
2023/10/04 10:30:33;;;;;;;11.88;5.45;;;26.30;52.70;;;;;;6245661;23;20004;-83
2023/10/04 10:33:00;;;;;;;10.70;5.15;;;26.40;53.30;;;;;;6245087;23;20414;-77
2023/10/04 10:35:57;;;;;;;12.55;6.93;;;26.50;53.10;;;;;;6218212;23;20034;-75
2023/10/04 10:38:41;;;;;;;11.63;5.28;;;26.50;53.10;;;;;;6244970;23;20316;-75
2023/10/04 10:41:28;;;;;;;8.98;5.10;;;26.60;53.20;;;;;;6245334;23;19997;-77
2023/10/04 10:44:19;;;;;;;10.98;5.78;;;26.70;52.60;;;;;;6245841;23;20091;-78
2023/10/04 10:47:06;;;;;;;12.30;5.50;;;26.70;52.10;;;;;;6218560;23;20015;-78
2023/10/04 10:49:48;;;;;;;11.20;5.38;;;26.80;52.10;;;;;;6246373;23;20015;-74
2023/10/04 10:52:38;;;;;;;11.68;5.30;;;26.90;52.00;;;;;;6245116;23;20057;-77
2023/10/04 10:55:06;;;;;;;7.93;5.32;;;26.90;51.70;;;;;;6245888;23;20004;-79
2023/10/04 10:57:36;;;;;;;9.85;4.82;;;27.00;52.50;;;;;;6218169;23;20371;-77
2023/10/04 11:00:32;;;;;;;12.38;5.20;;;27.10;50.70;;;;;;6244909;23;20000;-79
2023/10/04 11:02:55;;;;;;;10.07;5.53;;;27.10;51.00;;;;;;6244561;23;20008;-80
2023/10/04 11:05:21;;;;;;;10.00;4.70;;;27.20;50.70;;;;;;6244779;23;20031;-76
2023/10/04 11:07:49;;;;;;;6.75;4.13;;;27.20;50.60;;;;;;6244653;23;20134;-79
2023/10/04 11:10:16;;;;;;;7.82;4.13;;;27.30;49.90;;;;;;6244204;23;20000;-81
2023/10/04 11:12:44;;;;;;;10.60;4.82;;;27.30;49.10;;;;;;6245061;23;20012;-83
2023/10/04 11:15:10;;;;;;;9.88;4.50;;;27.40;48.50;;;;;;6245790;23;20373;-81
2023/10/04 11:17:38;;;;;;;10.93;5.10;;;27.50;48.80;;;;;;6244650;23;20008;-82
2023/10/04 11:20:14;;;;;;;11.02;7.05;;;27.50;49.60;;;;;;6245561;23;19996;-81
2023/10/04 11:22:41;;;;;;;9.20;5.57;;;27.60;51.00;;;;;;6244704;23;19996;-82
2023/10/04 11:25:08;;;;;;;8.18;4.75;;;27.60;50.90;;;;;;6244385;23;20008;-81
2023/10/04 11:27:37;;;;;;;10.57;4.65;;;27.70;50.00;;;;;;6244643;23;20075;-81
2023/10/04 11:30:04;;;;;;;13.57;4.80;;;27.70;49.80;;;;;;6245203;23;20010;-82
2023/10/04 11:32:31;;;;;;;15.23;7.05;;;27.70;49.60;;;;;;6244055;23;20094;-80
2023/10/04 11:34:57;;;;;;;11.15;5.70;;;27.80;49.70;;;;;;6244557;23;20418;-72
2023/10/04 11:37:29;;;;;;;11.05;5.80;;;27.90;49.80;;;;;;6244243;23;20024;-76
2023/10/04 11:39:55;;;;;;;12.93;5.18;;;27.90;49.60;;;;;;6244570;23;20446;-78
2023/10/04 11:42:23;;;;;;;8.75;4.80;;;27.90;49.70;;;;;;6244397;23;20465;-76
2023/10/04 11:44:49;;;;;;;10.35;5.07;;;28.00;50.50;;;;;;6244585;23;20031;-79
2023/10/04 11:47:32;;;;;;;9.45;5.85;;;28.00;51.50;;;;;;6245010;23;20342;-78
2023/10/04 11:50:00;;;;;;;9.15;5.28;;;28.00;50.90;;;;;;6244943;23;19996;-78
2023/10/04 11:52:32;;;;;;;11.30;5.13;;;28.00;52.00;;;;;;6244368;23;20434;-79
2023/10/04 11:54:59;;;;;;;9.57;4.45;;;28.10;52.30;;;;;;6245298;23;20000;-79
2023/10/04 11:57:27;;;;;;;11.65;4.80;;;28.10;51.90;;;;;;6246298;23;20019;-78
2023/10/04 11:59:56;;;;;;;9.07;3.80;;;28.20;51.20;;;;;;6244930;23;19996;-79
2023/10/04 12:02:23;;;;;;;7.40;3.88;;;28.20;50.20;;;;;;6243578;23;20052;-78
2023/10/04 12:04:49;;;;;;;8.85;4.88;;;28.30;50.30;;;;;;6244371;22;20024;-79
2023/10/04 12:07:15;;;;;;;6.63;4.13;;;28.30;50.70;;;;;;6244836;23;20004;-78
2023/10/04 12:09:40;;;;;;;10.65;5.25;;;28.30;50.70;;;;;;6244902;23;20004;-78
2023/10/04 12:12:07;;;;;;;8.55;4.03;;;28.40;50.60;;;;;;6244755;23;20046;-79
2023/10/04 12:14:34;;;;;;;10.38;4.20;;;28.40;50.60;;;;;;6244712;23;20015;-79
2023/10/04 12:17:02;;;;;;;8.07;4.72;;;28.50;50.80;;;;;;6244760;23;20500;-78
2023/10/04 12:19:30;;;;;;;11.10;4.05;;;28.50;51.10;;;;;;6245068;23;20015;-79
2023/10/04 12:21:57;;;;;;;9.88;3.90;;;28.60;50.70;;;;;;6245873;23;20091;-80
2023/10/04 12:24:22;;;;;;;10.20;3.90;;;28.60;49.70;;;;;;6245050;23;20004;-78
2023/10/04 12:26:48;;;;;;;6.57;3.80;;;28.60;48.60;;;;;;6245574;23;20015;-78
2023/10/04 12:29:14;;;;;;;8.35;4.40;;;28.60;48.80;;;;;;6244983;23;20024;-79
2023/10/04 12:31:39;;;;;;;10.25;4.50;;;28.60;49.70;;;;;;6244733;23;20053;-80
2023/10/04 12:34:05;;;;;;;7.65;4.72;;;28.60;50.70;;;;;;6244138;23;20012;-79
2023/10/04 12:36:31;;;;;;;9.57;5.05;;;28.60;51.40;;;;;;6245009;23;20384;-78
2023/10/04 12:38:57;;;;;;;9.45;4.43;;;28.60;51.70;;;;;;6244377;23;20388;-78
2023/10/04 12:41:22;;;;;;;7.50;4.30;;;28.60;51.30;;;;;;6244914;23;20020;-78
2023/10/04 12:43:48;;;;;;;8.27;4.55;;;28.60;51.40;;;;;;6245168;23;20012;-79
2023/10/04 12:46:14;;;;;;;13.30;5.13;;;28.60;51.70;;;;;;6247076;23;20322;-81
2023/10/04 12:48:39;;;;;;;9.95;4.80;;;28.60;52.10;;;;;;6220382;23;20058;-79
2023/10/04 12:51:05;;;;;;;9.52;5.47;;;28.60;52.20;;;;;;6247199;23;20067;-80
2023/10/04 12:53:32;;;;;;;8.93;4.80;;;28.60;51.90;;;;;;6247861;23;20394;-80
2023/10/04 12:55:57;;;;;;;6.88;4.53;;;28.50;51.80;;;;;;6250908;23;19996;-79
2023/10/04 12:58:23;;;;;;;9.13;4.50;;;28.50;52.30;;;;;;6252217;23;20001;-79
2023/10/04 13:00:50;;;;;;;8.32;4.35;;;28.50;52.40;;;;;;6262016;23;20386;-78
2023/10/04 13:03:17;;;;;;;7.45;5.10;;;28.50;51.40;;;;;;6259093;23;20000;-79
2023/10/04 13:05:43;;;;;;;10.60;5.05;;;28.50;51.40;;;;;;6258896;23;20091;-79
2023/10/04 13:08:09;;;;;;;9.65;4.82;;;28.50;51.60;;;;;;6249357;23;20000;-79
2023/10/04 13:10:39;;;;;;;9.40;4.40;;;28.50;52.10;;;;;;6246870;23;20011;-79
2023/10/04 13:13:07;;;;;;;6.00;3.97;;;28.40;52.40;;;;;;6246576;23;20036;-79
2023/10/04 13:15:34;;;;;;;8.63;4.45;;;28.40;53.00;;;;;;6247143;23;20425;-79
2023/10/04 13:18:02;;;;;;;10.57;4.38;;;28.50;53.20;;;;;;6246329;23;20521;-77
2023/10/04 13:20:28;;;;;;;9.43;4.30;;;28.50;52.90;;;;;;6246802;23;20000;-79
2023/10/04 13:22:55;;;;;;;8.93;4.50;;;28.40;53.00;;;;;;6246744;23;20018;-79
2023/10/04 13:25:23;;;;;;;9.90;4.15;;;28.50;53.40;;;;;;6246627;23;19996;-78
2023/10/04 13:27:49;;;;;;;7.13;4.35;;;28.40;53.10;;;;;;6246261;23;20008;-80
2023/10/04 13:30:15;;;;;;;8.02;4.15;;;28.40;53.40;;;;;;6247062;23;20059;-79
2023/10/04 13:32:47;;;;;;;7.85;4.60;;;28.40;53.80;;;;;;6246357;23;20015;-78
2023/10/04 13:35:16;;;;;;;5.82;4.07;;;28.40;54.20;;;;;;6247152;23;20004;-79
2023/10/04 13:37:45;;;;;;;6.93;4.28;;;28.50;54.50;;;;;;6219418;23;20008;-79
2023/10/04 13:40:19;;;;;;;8.98;4.68;;;28.50;54.80;;;;;;6246822;23;20438;-78
2023/10/04 13:42:50;;;;;;;7.22;4.22;;;28.50;55.00;;;;;;6246964;23;20030;-78
2023/10/04 13:45:19;;;;;;;11.13;4.35;;;28.60;55.60;;;;;;6246375;23;20008;-79
2023/10/04 13:47:45;;;;;;;8.82;4.10;;;28.60;54.60;;;;;;6246503;23;20072;-79
2023/10/04 13:50:12;;;;;;;8.88;4.25;;;28.60;54.70;;;;;;6246639;23;20079;-78
2023/10/04 13:52:40;;;;;;;7.07;4.10;;;28.50;54.70;;;;;;6246355;23;20008;-80
2023/10/04 13:55:06;;;;;;;6.85;3.92;;;28.50;54.30;;;;;;6219432;23;20502;-79
2023/10/04 13:57:32;;;;;;;8.15;4.07;;;28.50;54.30;;;;;;6246517;23;20435;-79
2023/10/04 13:59:58;;;;;;;12.75;4.07;;;28.50;54.70;;;;;;6246263;23;20005;-78
2023/10/04 14:02:24;;;;;;;8.55;4.53;;;28.50;55.00;;;;;;6246678;23;20078;-78
2023/10/04 14:04:49;;;;;;;8.38;3.83;;;28.40;55.40;;;;;;6246487;23;20438;-78
2023/10/04 14:07:16;;;;;;;8.38;4.10;;;28.50;55.80;;;;;;6246538;23;20004;-77
2023/10/04 14:09:43;;;;;;;7.63;3.78;;;28.40;56.20;;;;;;6246056;23;20080;-77
2023/10/04 14:12:09;;;;;;;10.05;4.03;;;28.40;56.20;;;;;;6246259;23;20004;-77
2023/10/04 14:14:36;;;;;;;8.50;3.83;;;28.40;56.20;;;;;;6246198;23;20014;-77
2023/10/04 14:17:06;;;;;;;7.38;3.83;;;28.30;56.20;;;;;;6246389;23;20003;-77
2023/10/04 14:19:32;;;;;;;13.60;4.25;;;28.30;56.50;;;;;;6246544;23;20091;-80
2023/10/04 14:22:01;;;;;;;7.03;4.15;;;28.30;56.60;;;;;;6246561;23;20035;-79
2023/10/04 14:24:27;;;;;;;5.70;4.32;;;28.30;56.50;;;;;;6246581;23;20011;-78
2023/10/04 14:26:57;;;;;;;8.57;4.20;;;28.30;56.40;;;;;;6246030;23;20032;-79
2023/10/04 14:29:22;;;;;;;5.28;3.60;;;28.20;56.60;;;;;;6246038;23;19996;-80
2023/10/04 14:31:48;;;;;;;9.77;4.65;;;28.20;57.00;;;;;;6219158;23;20004;-79
2023/10/04 14:34:15;;;;;;;6.50;3.88;;;28.20;57.30;;;;;;6245825;23;20004;-79
2023/10/04 14:36:42;;;;;;;8.30;4.07;;;28.10;57.50;;;;;;6245633;23;20006;-77
2023/10/04 14:39:08;;;;;;;13.43;4.05;;;28.10;57.80;;;;;;6246099;23;20015;-77
2023/10/04 14:41:37;;;;;;;9.82;4.18;;;28.10;57.50;;;;;;6245202;23;20075;-80
2023/10/04 14:44:02;;;;;;;12.40;5.15;;;28.10;57.50;;;;;;6245472;23;20118;-79
2023/10/04 14:46:29;;;;;;;10.00;4.38;;;28.10;57.50;;;;;;6245542;23;20421;-79
2023/10/04 14:48:55;;;;;;;14.18;5.28;;;28.10;58.00;;;;;;6218657;23;20150;-78
2023/10/04 14:51:20;;;;;;;12.13;5.28;;;28.10;57.80;;;;;;6245422;23;20036;-77
2023/10/04 14:53:46;;;;;;;19.38;6.05;;;28.00;58.20;;;;;;6245735;23;20074;-77
2023/10/04 14:56:12;;;;;;;23.50;7.80;;;28.00;58.20;;;;;;6245182;23;20046;-76
2023/10/04 14:58:38;;;;;;;18.90;7.35;;;28.00;58.20;;;;;;6245187;23;20058;-78
2023/10/04 15:01:06;;;;;;;18.90;8.00;;;28.00;58.00;;;;;;6245403;23;20058;-77
2023/10/04 15:03:33;;;;;;;14.07;5.60;;;28.00;57.70;;;;;;6245950;23;20028;-78
2023/10/04 15:05:58;;;;;;;15.10;7.22;;;28.00;57.90;;;;;;6245847;23;20016;-78
2023/10/04 15:08:26;;;;;;;10.98;4.32;;;28.00;57.80;;;;;;6246174;23;20337;-78
2023/10/04 15:10:51;;;;;;;11.50;4.28;;;27.90;57.50;;;;;;6249163;23;19996;-81
2023/10/04 15:13:17;;;;;;;9.30;4.97;;;27.90;57.70;;;;;;6226238;23;20099;-76
2023/10/04 15:15:43;;;;;;;10.23;4.88;;;27.90;58.20;;;;;;6250987;23;20427;-78
2023/10/04 15:18:09;;;;;;;11.82;5.32;;;27.90;58.30;;;;;;6248787;23;20007;-77
2023/10/04 15:20:35;;;;;;;10.38;4.35;;;27.80;58.10;;;;;;6245596;23;20004;-76
2023/10/04 15:23:09;;;;;;;13.80;4.32;;;27.70;57.70;;;;;;6218237;23;20004;-77
2023/10/04 15:25:40;;;;;;;12.93;5.57;;;27.70;57.50;;;;;;6245127;23;20000;-77
2023/10/04 15:28:12;;;;;;;7.60;3.92;;;27.70;57.90;;;;;;6245610;23;20004;-78
2023/10/04 15:30:41;;;;;;;8.80;4.60;;;27.60;57.70;;;;;;6245570;23;20005;-78
2023/10/04 15:33:07;;;;;;;11.15;4.32;;;27.60;58.20;;;;;;6245418;23;20016;-78
2023/10/04 15:35:34;;;;;;;12.48;5.13;;;27.50;58.20;;;;;;6245872;23;20079;-85
2023/10/04 15:38:00;;;;;;;14.13;6.15;;;27.50;58.20;;;;;;6245806;23;20007;-77
2023/10/04 15:40:30;;;;;;;16.92;6.30;;;27.50;58.40;;;;;;6245102;23;20000;-78